createdAt,value
2023-12-04T00:00:50.240Z,9.07
2023-12-04T00:03:17.506Z,8.67
2023-12-04T00:05:45.980Z,10.32
2023-12-04T00:08:13.023Z,9.70
2023-12-04T00:10:40.095Z,8.70
2023-12-04T00:13:07.021Z,9.25
2023-12-04T00:15:34.138Z,8.70
2023-12-04T00:18:01.823Z,9.13
2023-12-04T00:20:28.856Z,8.90
2023-12-04T00:22:57.763Z,8.88
2023-12-04T00:25:24.672Z,7.30
2023-12-04T00:27:52.252Z,7.50
2023-12-04T00:30:19.188Z,7.70
2023-12-04T00:32:46.223Z,8.55
2023-12-04T00:35:13.350Z,8.10
2023-12-04T00:37:40.295Z,8.40
2023-12-04T00:40:09.422Z,8.73
2023-12-04T00:42:36.422Z,8.40
2023-12-04T00:45:03.463Z,7.55
2023-12-04T00:47:30.719Z,6.82
2023-12-04T00:49:58.007Z,6.72
2023-12-04T00:52:24.860Z,6.43
2023-12-04T00:54:52.386Z,4.85
2023-12-04T00:59:47.851Z,6.20
2023-12-04T01:02:14.894Z,5.63
2023-12-04T01:04:42.777Z,6.17
2023-12-04T01:07:09.685Z,5.57
2023-12-04T01:09:36.835Z,5.78
2023-12-04T01:12:04.282Z,5.07
2023-12-04T01:14:34.178Z,5.75
2023-12-04T01:17:01.120Z,5.67
2023-12-04T01:19:28.138Z,5.63
2023-12-04T01:21:55.571Z,5.60
2023-12-04T01:24:22.690Z,5.45
2023-12-04T01:26:49.696Z,5.68
2023-12-04T01:29:17.700Z,5.70
2023-12-04T01:31:46.737Z,5.70
2023-12-04T01:34:13.763Z,5.25
2023-12-04T01:36:41.398Z,5.60
2023-12-04T01:39:08.303Z,5.95
2023-12-04T01:41:35.182Z,5.73
2023-12-04T01:44:02.142Z,5.38
2023-12-04T01:46:29.449Z,5.20
2023-12-04T01:48:58.296Z,5.30
2023-12-04T01:51:25.905Z,4.28
2023-12-04T01:53:53.350Z,4.87
2023-12-04T01:56:20.931Z,4.43
2023-12-04T01:58:47.994Z,4.45
2023-12-04T02:01:15.807Z,4.47
2023-12-04T02:03:43.132Z,5.47
2023-12-04T02:06:12.816Z,4.73
2023-12-04T02:08:41.818Z,4.47
2023-12-04T02:11:08.797Z,5.00
2023-12-04T02:13:35.797Z,4.13
2023-12-04T02:16:04.427Z,4.40
2023-12-04T02:18:31.366Z,4.43
2023-12-04T02:20:58.389Z,4.53
2023-12-04T02:23:26.951Z,4.50
2023-12-04T02:25:59.833Z,4.35
2023-12-04T02:28:28.310Z,4.03
2023-12-04T02:30:55.408Z,4.60
2023-12-04T02:33:24.761Z,4.82
2023-12-04T02:35:52.402Z,4.97
2023-12-04T02:38:19.678Z,5.05
2023-12-04T02:40:46.686Z,5.13
2023-12-04T02:43:15.143Z,4.67
2023-12-04T02:45:42.167Z,4.95
2023-12-04T02:48:09.378Z,4.60
2023-12-04T02:50:36.376Z,5.28
2023-12-04T02:53:03.318Z,4.93
2023-12-04T02:55:30.334Z,4.23
2023-12-04T02:57:57.338Z,4.40
2023-12-04T03:00:25.630Z,4.22
2023-12-04T03:02:52.500Z,4.32
2023-12-04T03:05:20.426Z,3.58
2023-12-04T03:07:47.335Z,3.83
2023-12-04T03:10:14.279Z,4.60
2023-12-04T03:12:41.369Z,4.63
2023-12-04T03:15:09.015Z,4.47
2023-12-04T03:17:37.525Z,4.60
2023-12-04T03:20:05.958Z,4.43
2023-12-04T03:22:34.108Z,4.38
2023-12-04T03:25:01.092Z,4.90
2023-12-04T03:27:28.101Z,4.65
2023-12-04T03:29:55.678Z,5.03
2023-12-04T03:32:22.603Z,4.73
2023-12-04T03:34:51.140Z,5.25
2023-12-04T03:37:18.059Z,4.78
2023-12-04T03:39:45.062Z,4.45
2023-12-04T03:42:11.986Z,3.50
2023-12-04T03:44:39.045Z,4.17
2023-12-04T03:47:05.936Z,4.60
2023-12-04T03:49:32.957Z,4.18
2023-12-04T03:52:01.321Z,4.85
2023-12-04T03:54:28.235Z,4.07
2023-12-04T03:56:55.173Z,4.13
2023-12-04T03:59:22.315Z,4.50
2023-12-04T04:01:49.224Z,4.43
2023-12-04T04:04:16.459Z,4.18
2023-12-04T04:06:43.526Z,4.20
2023-12-04T04:09:11.925Z,4.03
2023-12-04T04:11:38.883Z,4.03
2023-12-04T04:14:08.511Z,4.20
2023-12-04T04:16:35.428Z,4.28
2023-12-04T04:19:02.445Z,5.07
2023-12-04T04:21:29.526Z,3.43
2023-12-04T04:23:56.467Z,4.05
2023-12-04T04:26:24.980Z,4.05
2023-12-04T04:28:53.701Z,4.43
2023-12-04T04:31:20.665Z,4.00
2023-12-04T04:33:47.777Z,4.93
2023-12-04T04:36:14.839Z,7.60
2023-12-04T04:38:42.069Z,7.15
2023-12-04T04:41:14.054Z,6.00
2023-12-04T04:43:42.338Z,5.35
2023-12-04T04:46:10.381Z,6.00
2023-12-04T04:48:37.509Z,5.63
2023-12-04T04:51:04.868Z,5.55
2023-12-04T04:53:31.792Z,5.20
2023-12-04T04:55:58.785Z,4.85
2023-12-04T04:58:25.902Z,4.33
2023-12-04T05:00:54.439Z,4.13
2023-12-04T05:03:22.499Z,4.20
2023-12-04T05:05:49.740Z,4.15
2023-12-04T05:08:16.700Z,4.72
2023-12-04T05:10:44.027Z,5.23
2023-12-04T05:13:11.096Z,4.95
2023-12-04T05:15:38.213Z,4.53
2023-12-04T05:18:06.589Z,4.20
2023-12-04T05:20:33.653Z,4.80
2023-12-04T05:23:00.636Z,4.87
2023-12-04T05:25:31.864Z,4.50
2023-12-04T05:28:04.320Z,5.32
2023-12-04T05:30:31.303Z,4.05
2023-12-04T05:32:58.597Z,4.65
2023-12-04T05:35:27.023Z,4.37
2023-12-04T05:37:54.005Z,4.50
2023-12-04T05:40:20.940Z,4.72
2023-12-04T05:42:48.095Z,4.43
2023-12-04T05:45:15.133Z,4.32
2023-12-04T05:47:42.316Z,5.07
2023-12-04T05:50:09.681Z,5.03
2023-12-04T05:52:38.039Z,5.15
2023-12-04T05:55:05.448Z,6.13
2023-12-04T05:57:32.601Z,6.15
2023-12-04T06:00:00.301Z,6.47
2023-12-04T06:02:29.186Z,7.00
2023-12-04T06:04:56.269Z,8.18
2023-12-04T06:07:23.205Z,8.88
2023-12-04T06:09:51.555Z,7.85
2023-12-04T06:12:18.615Z,8.60
2023-12-04T06:14:45.595Z,8.48
2023-12-04T06:17:12.541Z,10.00
2023-12-04T06:19:39.860Z,10.02
2023-12-04T06:22:06.956Z,10.93
2023-12-04T06:24:34.300Z,13.80
2023-12-04T06:27:03.110Z,14.35
2023-12-04T06:29:30.314Z,19.27
2023-12-04T06:31:57.786Z,21.02
2023-12-04T06:34:25.578Z,31.75
2023-12-04T06:36:52.871Z,32.90
2023-12-04T06:39:20.145Z,20.48
2023-12-04T06:41:49.426Z,16.73
2023-12-04T06:44:18.241Z,15.27
2023-12-04T06:46:49.020Z,14.88
2023-12-04T06:49:18.642Z,11.77
2023-12-04T06:51:45.876Z,14.43
2023-12-04T06:54:14.837Z,15.50
2023-12-04T06:56:41.933Z,17.63
2023-12-04T06:59:09.011Z,18.60
2023-12-04T07:01:37.429Z,15.37
2023-12-04T07:04:10.929Z,15.38
2023-12-04T07:06:38.438Z,16.65
2023-12-04T07:09:05.707Z,14.98
2023-12-04T07:11:34.211Z,14.10
2023-12-04T07:14:01.209Z,12.37
2023-12-04T07:16:28.265Z,9.95
2023-12-04T07:18:56.837Z,11.75
2023-12-04T07:21:23.877Z,11.00
2023-12-04T07:23:50.961Z,8.93
2023-12-04T07:26:17.976Z,8.20
2023-12-04T07:28:44.993Z,8.55
2023-12-04T07:31:12.901Z,8.55
2023-12-04T07:33:40.069Z,9.82
2023-12-04T07:36:08.942Z,7.80
2023-12-04T07:38:35.893Z,8.50
2023-12-04T07:41:03.100Z,9.43
2023-12-04T07:43:30.138Z,9.32
2023-12-04T07:45:57.601Z,9.73
2023-12-04T07:48:24.695Z,10.93
2023-12-04T07:50:51.656Z,11.23
2023-12-04T07:53:20.024Z,11.40
2023-12-04T07:55:48.098Z,10.25
2023-12-04T07:58:15.116Z,9.23
2023-12-04T08:00:42.957Z,9.18
2023-12-04T08:03:09.960Z,10.10
2023-12-04T08:05:37.623Z,9.65
2023-12-04T08:08:04.862Z,9.80
2023-12-04T08:10:33.426Z,9.05
2023-12-04T08:13:00.501Z,9.38
2023-12-04T08:15:27.616Z,8.17
2023-12-04T08:17:54.704Z,8.80
2023-12-04T08:20:30.647Z,8.75
2023-12-04T08:23:04.404Z,8.02
2023-12-04T08:25:31.647Z,7.80
2023-12-04T08:28:01.599Z,7.10
2023-12-04T08:30:28.722Z,8.77
2023-12-04T08:32:56.192Z,6.97
2023-12-04T08:35:23.235Z,6.25
2023-12-04T08:37:56.199Z,7.50
2023-12-04T08:40:23.566Z,7.17
2023-12-04T08:42:50.838Z,7.00
2023-12-04T08:45:20.088Z,6.68
2023-12-04T08:47:47.637Z,6.65
2023-12-04T08:50:15.213Z,7.18
2023-12-04T08:52:43.885Z,5.93
2023-12-04T08:55:11.223Z,5.68
2023-12-04T08:57:38.371Z,6.43
2023-12-04T09:00:06.624Z,6.70
2023-12-04T09:02:37.244Z,6.65
2023-12-04T09:05:04.661Z,6.57
2023-12-04T09:10:08.142Z,7.22
2023-12-04T09:12:39.135Z,7.80
2023-12-04T09:15:08.461Z,7.28
2023-12-04T09:17:51.008Z,7.70
2023-12-04T09:20:18.197Z,7.85
2023-12-04T09:22:50.461Z,7.18
2023-12-04T09:25:20.357Z,8.45
2023-12-04T09:27:47.376Z,8.40
2023-12-04T09:30:15.077Z,9.07
2023-12-04T09:32:42.379Z,8.57
2023-12-04T09:35:10.800Z,8.30
2023-12-04T09:37:44.530Z,8.80
2023-12-04T09:40:12.016Z,9.38
2023-12-04T09:42:41.983Z,8.40
2023-12-04T09:45:09.905Z,8.43
2023-12-04T09:47:37.890Z,8.02
2023-12-04T09:50:07.045Z,7.90
2023-12-04T09:52:36.506Z,7.93
2023-12-04T09:55:05.278Z,7.73
2023-12-04T09:57:32.463Z,6.80
2023-12-04T10:00:01.688Z,6.80
2023-12-04T10:02:29.226Z,6.85
2023-12-04T10:04:56.224Z,6.95
2023-12-04T10:07:23.344Z,6.50
2023-12-04T10:09:51.787Z,6.93
2023-12-04T10:12:23.012Z,7.68
2023-12-04T10:15:04.107Z,7.07
2023-12-04T10:17:34.543Z,7.20
2023-12-04T10:20:07.013Z,6.67
2023-12-04T10:22:33.970Z,7.50
2023-12-04T10:25:14.781Z,6.70
2023-12-04T10:27:41.768Z,6.30
2023-12-04T10:30:09.298Z,5.75
2023-12-04T10:32:38.306Z,7.63
2023-12-04T10:35:06.666Z,5.93
2023-12-04T10:37:37.004Z,5.68
2023-12-04T10:40:16.294Z,5.88
2023-12-04T10:42:48.132Z,5.72
2023-12-04T10:45:15.309Z,5.87
2023-12-04T10:47:42.442Z,6.05
2023-12-04T10:50:10.101Z,5.57
2023-12-04T10:52:37.489Z,5.78
2023-12-04T10:55:08.775Z,7.25
2023-12-04T10:57:38.299Z,5.20
2023-12-04T11:00:07.287Z,4.15
2023-12-04T11:02:35.587Z,6.45
2023-12-04T11:08:43.485Z,5.47
2023-12-04T11:11:14.303Z,6.80
2023-12-04T11:13:45.590Z,9.73
2023-12-04T11:16:14.016Z,5.30
2023-12-04T11:18:43.430Z,6.57
2023-12-04T11:21:14.833Z,5.10
2023-12-04T11:23:43.065Z,5.47
2023-12-04T11:26:10.597Z,5.93
2023-12-04T11:28:39.923Z,9.23
2023-12-04T11:31:07.553Z,4.55
2023-12-04T11:33:36.188Z,6.65
2023-12-04T11:36:08.729Z,5.67
2023-12-04T11:38:37.730Z,5.97
2023-12-04T11:41:13.211Z,5.88
2023-12-04T11:43:43.684Z,4.10
2023-12-04T11:46:11.012Z,3.90
2023-12-04T11:48:38.191Z,4.33
2023-12-04T11:51:06.446Z,5.32
2023-12-04T11:53:33.754Z,4.85
2023-12-04T11:56:09.697Z,3.97
2023-12-04T11:58:44.599Z,5.57
2023-12-04T12:01:11.634Z,3.77
2023-12-04T12:03:38.886Z,3.95
2023-12-04T12:06:06.464Z,4.38
2023-12-04T12:08:33.984Z,5.13
2023-12-04T12:11:01.114Z,4.00
2023-12-04T12:13:28.432Z,3.13
2023-12-04T12:16:00.492Z,3.55
2023-12-04T12:18:28.440Z,2.40
2023-12-04T12:20:56.036Z,2.33
2023-12-04T12:23:24.567Z,3.35
2023-12-04T12:25:51.923Z,2.27
2023-12-04T12:28:19.544Z,3.50
2023-12-04T12:30:46.985Z,3.80
2023-12-04T12:33:16.769Z,3.38
2023-12-04T12:35:51.431Z,3.10
2023-12-04T12:38:25.084Z,2.67
2023-12-04T12:40:52.038Z,2.63
2023-12-04T12:43:22.219Z,3.25
2023-12-04T12:45:49.388Z,2.75
2023-12-04T12:48:18.671Z,4.40
2023-12-04T12:50:46.342Z,4.10
2023-12-04T12:53:13.851Z,4.13
2023-12-04T12:55:41.678Z,3.58
2023-12-04T12:58:09.942Z,2.80
2023-12-04T13:00:37.396Z,3.00
2023-12-04T13:03:07.917Z,2.40
2023-12-04T13:05:36.580Z,4.07
2023-12-04T13:08:05.645Z,3.30
2023-12-04T13:10:32.627Z,3.55
2023-12-04T13:13:01.278Z,2.95
2023-12-04T13:15:28.520Z,3.63
2023-12-04T13:17:55.839Z,2.63
2023-12-04T13:20:24.653Z,2.75
2023-12-04T13:22:52.987Z,3.47
2023-12-04T13:25:20.488Z,4.05
2023-12-04T13:27:47.475Z,3.40
2023-12-04T13:30:14.656Z,3.50
2023-12-04T13:32:42.115Z,3.13
2023-12-04T13:35:09.658Z,2.53
2023-12-04T13:37:37.736Z,3.17
2023-12-04T13:40:08.065Z,3.10
2023-12-04T13:42:53.824Z,4.28
2023-12-04T13:45:24.269Z,3.53
2023-12-04T13:47:51.413Z,4.10
2023-12-04T13:50:18.964Z,4.20
2023-12-04T13:52:45.968Z,4.17
2023-12-04T13:55:37.690Z,3.75
2023-12-04T13:58:05.086Z,3.95
2023-12-04T14:00:32.176Z,4.68
2023-12-04T14:03:06.487Z,4.35
2023-12-04T14:05:34.830Z,3.73
2023-12-04T14:08:02.579Z,3.83
2023-12-04T14:10:31.482Z,3.47
2023-12-04T14:13:01.229Z,4.10
2023-12-04T14:15:28.535Z,4.00
2023-12-04T14:17:55.894Z,3.80
2023-12-04T14:20:23.708Z,4.30
2023-12-04T14:22:50.843Z,4.00
2023-12-04T14:25:18.099Z,3.80
2023-12-04T14:27:46.517Z,4.00
2023-12-04T14:30:13.886Z,4.13
2023-12-04T14:32:47.325Z,3.67
2023-12-04T14:35:15.811Z,3.10
2023-12-04T14:37:42.992Z,2.75
2023-12-04T14:40:10.435Z,3.65
2023-12-04T14:42:37.902Z,2.30
2023-12-04T14:45:06.958Z,3.55
2023-12-04T14:47:34.220Z,4.10
2023-12-04T14:50:01.243Z,4.18
2023-12-04T14:52:29.990Z,3.28
2023-12-04T14:55:11.013Z,4.10
2023-12-04T14:57:40.930Z,4.05
2023-12-04T15:00:11.734Z,3.70
2023-12-04T15:03:14.244Z,3.58
2023-12-04T15:06:13.721Z,3.78
2023-12-04T15:08:59.684Z,4.10
2023-12-04T15:11:41.464Z,4.82
2023-12-04T15:14:11.023Z,5.68
2023-12-04T15:16:49.247Z,5.78
2023-12-04T15:19:37.409Z,5.72
2023-12-04T15:22:06.307Z,6.17
2023-12-04T15:24:34.812Z,6.22
2023-12-04T15:27:01.983Z,6.55
2023-12-04T15:29:31.405Z,5.13
2023-12-04T15:31:59.695Z,5.95
2023-12-04T15:34:28.658Z,4.40
2023-12-04T15:36:56.507Z,7.25
2023-12-04T15:39:26.949Z,5.97
2023-12-04T15:41:53.939Z,6.90
2023-12-04T15:44:22.350Z,6.88
2023-12-04T15:46:49.462Z,7.77
2023-12-04T15:49:18.066Z,8.75
2023-12-04T15:51:45.267Z,8.90
2023-12-04T15:54:12.268Z,7.97
2023-12-04T15:56:39.224Z,9.32
2023-12-04T15:59:06.338Z,8.20
2023-12-04T16:01:33.459Z,6.40
2023-12-04T16:04:00.709Z,6.43
2023-12-04T16:06:31.152Z,6.55
2023-12-04T16:08:59.124Z,6.22
2023-12-04T16:11:26.824Z,6.07
2023-12-04T16:13:53.756Z,6.22
2023-12-04T16:16:20.797Z,6.57
2023-12-04T16:18:48.038Z,6.10
2023-12-04T16:21:15.462Z,6.05
2023-12-04T16:23:43.895Z,6.00
2023-12-04T16:26:11.956Z,6.15
2023-12-04T16:28:40.608Z,6.68
2023-12-04T16:31:07.967Z,6.20
2023-12-04T16:33:35.204Z,5.40
2023-12-04T16:36:02.485Z,6.57
2023-12-04T16:38:29.486Z,6.60
2023-12-04T16:40:59.578Z,6.07
2023-12-04T16:43:28.186Z,6.47
2023-12-04T16:45:55.436Z,5.93
2023-12-04T16:48:22.679Z,5.83
2023-12-04T16:50:49.733Z,6.38
2023-12-04T16:53:16.763Z,7.05
2023-12-04T16:55:43.902Z,6.97
2023-12-04T16:58:13.377Z,7.10
2023-12-04T17:00:40.373Z,7.10
2023-12-04T17:03:07.819Z,6.38
2023-12-04T17:05:35.605Z,7.38
2023-12-04T17:08:02.963Z,6.78
2023-12-04T17:10:30.649Z,7.97
2023-12-04T17:12:57.873Z,6.80
2023-12-04T17:15:26.482Z,7.43
2023-12-04T17:17:54.166Z,6.00
2023-12-04T17:20:21.150Z,5.97
2023-12-04T17:22:49.090Z,4.90
2023-12-04T17:25:16.719Z,7.20
2023-12-04T17:27:43.844Z,6.30
2023-12-04T17:30:11.826Z,6.70
2023-12-04T17:32:44.788Z,7.32
2023-12-04T17:35:12.215Z,8.05
2023-12-04T17:37:39.285Z,7.50
2023-12-04T17:40:07.127Z,6.43
2023-12-04T17:42:34.226Z,7.63
2023-12-04T17:45:02.417Z,6.80
2023-12-04T17:47:29.667Z,6.93
2023-12-04T17:49:59.086Z,5.73
2023-12-04T17:52:27.024Z,5.72
2023-12-04T17:54:54.692Z,5.93
2023-12-04T17:57:22.417Z,5.30
2023-12-04T17:59:49.404Z,5.47
2023-12-04T18:02:16.979Z,5.50
2023-12-04T18:04:45.549Z,5.22
2023-12-04T18:07:14.483Z,6.40
2023-12-04T18:09:41.745Z,5.88
2023-12-04T18:12:09.445Z,6.53
2023-12-04T18:14:36.851Z,6.27
2023-12-04T18:17:14.215Z,6.30
2023-12-04T18:19:41.628Z,6.63
2023-12-04T18:22:09.067Z,6.55
2023-12-04T18:24:55.629Z,6.63
2023-12-04T18:27:25.982Z,5.97
2023-12-04T18:30:05.474Z,5.45
2023-12-04T18:32:38.978Z,6.70
2023-12-04T18:35:24.538Z,6.47
2023-12-04T18:38:11.790Z,7.50
2023-12-04T18:40:44.586Z,6.73
2023-12-04T18:43:13.344Z,7.07
2023-12-04T18:46:00.662Z,6.72
2023-12-04T18:48:36.241Z,7.53
2023-12-04T18:51:03.886Z,7.65
2023-12-04T18:53:31.916Z,7.83
2023-12-04T18:56:00.490Z,6.13
2023-12-04T18:58:29.125Z,9.40
2023-12-04T19:00:57.166Z,6.07
2023-12-04T19:03:24.574Z,7.00
2023-12-04T19:05:52.069Z,7.70
2023-12-04T19:08:19.357Z,8.15
2023-12-04T19:10:48.030Z,6.68
2023-12-04T19:13:16.752Z,6.63
2023-12-04T19:15:43.956Z,7.38
2023-12-04T19:18:12.734Z,6.73
2023-12-04T19:20:39.908Z,6.30
2023-12-04T19:23:07.438Z,6.93
2023-12-04T19:25:48.471Z,5.90
2023-12-04T19:28:18.939Z,6.70
2023-12-04T19:30:45.931Z,6.73
2023-12-04T19:33:18.345Z,6.45
2023-12-04T19:35:52.810Z,6.38
2023-12-04T19:38:22.133Z,6.10
2023-12-04T19:40:49.731Z,6.60
2023-12-04T19:43:18.694Z,7.03
2023-12-04T19:45:46.058Z,6.88
2023-12-04T19:48:13.406Z,6.57
2023-12-04T19:50:41.434Z,7.20
2023-12-04T19:53:08.740Z,6.78
2023-12-04T19:55:35.915Z,6.40
2023-12-04T19:58:07.149Z,6.22
2023-12-04T20:00:36.129Z,7.22
2023-12-04T20:03:04.032Z,6.78
2023-12-04T20:05:32.365Z,6.70
2023-12-04T20:07:59.419Z,7.43
2023-12-04T20:10:26.655Z,6.60
2023-12-04T20:12:53.832Z,7.25
2023-12-04T20:15:21.376Z,5.45
2023-12-04T20:17:50.296Z,7.95
2023-12-04T20:20:18.892Z,6.00
2023-12-04T20:22:45.796Z,6.72
2023-12-04T20:25:12.848Z,6.00
2023-12-04T20:27:40.124Z,6.75
2023-12-04T20:30:09.184Z,7.25
2023-12-04T20:32:36.366Z,7.10
2023-12-04T20:35:05.528Z,7.78
2023-12-04T20:37:41.380Z,8.27
2023-12-04T20:40:10.232Z,6.32
2023-12-04T20:42:37.915Z,7.80
2023-12-04T20:45:05.846Z,7.43
2023-12-04T20:47:33.750Z,7.22
2023-12-04T20:50:01.367Z,5.90
2023-12-04T20:52:29.697Z,7.38
2023-12-04T20:54:58.947Z,6.95
2023-12-04T20:57:26.061Z,6.73
2023-12-04T20:59:53.270Z,7.35
2023-12-04T21:02:20.712Z,7.18
2023-12-04T21:04:47.985Z,6.10
2023-12-04T21:07:16.024Z,7.57
2023-12-04T21:09:45.861Z,7.73
2023-12-04T21:12:14.584Z,7.72
2023-12-04T21:14:41.792Z,7.22
2023-12-04T21:17:10.204Z,8.38
2023-12-04T21:19:37.438Z,8.52
2023-12-04T21:22:04.566Z,7.67
2023-12-04T21:24:31.544Z,7.13
2023-12-04T21:26:59.899Z,7.38
2023-12-04T21:29:27.408Z,6.88
2023-12-04T21:31:54.463Z,7.55
2023-12-04T21:34:21.750Z,6.80
2023-12-04T21:36:49.127Z,7.10
2023-12-04T21:39:16.623Z,7.65
2023-12-04T21:41:43.591Z,6.35
2023-12-04T21:44:12.007Z,7.10
2023-12-04T21:46:39.224Z,7.83
2023-12-04T21:49:06.211Z,7.50
2023-12-04T21:51:33.352Z,7.05
2023-12-04T21:54:02.046Z,7.22
2023-12-04T21:56:29.165Z,6.30
2023-12-04T21:58:56.392Z,7.20
2023-12-04T22:01:25.436Z,8.38
2023-12-04T22:03:52.679Z,7.60
2023-12-04T22:06:20.175Z,7.75
2023-12-04T22:08:47.610Z,7.93
2023-12-04T22:11:14.501Z,7.87
2023-12-04T22:13:41.671Z,8.23
2023-12-04T22:16:08.831Z,6.63
2023-12-04T22:18:37.591Z,7.65
2023-12-04T22:21:04.749Z,7.45
2023-12-04T22:23:31.965Z,8.10
2023-12-04T22:25:59.373Z,8.10
2023-12-04T22:28:26.959Z,7.78
2023-12-04T22:30:53.953Z,7.25
2023-12-04T22:33:20.941Z,8.02
2023-12-04T22:35:49.848Z,7.80
2023-12-04T22:38:16.833Z,7.97
2023-12-04T22:40:43.759Z,8.45
2023-12-04T22:43:10.760Z,7.55
2023-12-04T22:45:38.733Z,7.72
2023-12-04T22:48:05.977Z,8.00
2023-12-04T22:50:33.068Z,7.95
2023-12-04T22:53:05.905Z,7.13
2023-12-04T22:55:36.476Z,8.35
2023-12-04T22:58:03.462Z,8.18
2023-12-04T23:00:30.543Z,8.83
2023-12-04T23:02:57.495Z,7.03
2023-12-04T23:05:25.809Z,8.52
2023-12-04T23:07:52.786Z,9.68
2023-12-04T23:10:21.108Z,8.88
2023-12-04T23:12:51.039Z,7.73
2023-12-04T23:15:18.407Z,8.20
2023-12-04T23:17:45.373Z,9.20
2023-12-04T23:20:12.960Z,9.73
2023-12-04T23:22:39.992Z,10.23
2023-12-04T23:25:07.630Z,9.17
2023-12-04T23:27:38.210Z,10.30
2023-12-04T23:30:06.722Z,10.00
2023-12-04T23:32:35.789Z,10.52
2023-12-04T23:35:03.108Z,9.65
2023-12-04T23:37:30.079Z,10.23
2023-12-04T23:39:56.991Z,10.65
2023-12-04T23:42:24.233Z,9.73
2023-12-04T23:44:52.628Z,8.48
2023-12-04T23:47:19.995Z,9.35
2023-12-04T23:49:47.055Z,9.30
2023-12-04T23:52:14.436Z,9.40
2023-12-04T23:54:41.490Z,9.68
2023-12-04T23:57:08.834Z,9.23
2023-12-04T23:59:37.056Z,9.88
